Time;durP1;ratioP1;P1;durP2;ratioP2;P2;SDS_P1;SDS_P2;PMS_P1;PMS_P2;Temp;Humidity;BMP_temperature;BMP_pressure;BME280_temperature;BME280_humidity;BME280_pressure;Samples;Min_cycle;Max_cycle;Signal;HPM_P1;HPM_P2
2021/05/09 01:29:43;;;;;;;1.77;0.88;;;15.70;67.80;;;;;;2552146;52;21209;-87
2021/05/09 07:16:24;;;;;;;1.30;0.60;;;16.50;77.70;;;;;;2462100;53;20981;-86
2021/05/09 07:18:55;;;;;;;2.30;1.00;;;21.30;87.40;;;;;;2569527;52;20966;-87
2021/05/09 07:21:26;;;;;;;2.35;1.00;;;21.90;88.90;;;;;;2540841;53;20942;-86
2021/05/09 07:23:53;;;;;;;;;;;22.60;87.80;;;;;;2556951;53;21034;-87
2021/05/09 07:26:20;;;;;;;2.15;1.00;;;23.20;81.80;;;;;;2557656;53;20079;-86
2021/05/09 07:28:46;;;;;;;1.92;0.88;;;23.80;85.60;;;;;;2573446;52;21010;-85
2021/05/09 07:31:16;;;;;;;2.35;1.00;;;24.20;83.80;;;;;;2299940;54;20969;-86
2021/05/09 07:33:42;;;;;;;2.90;1.15;;;24.70;81.00;;;;;;2537199;53;20941;-86
2021/05/09 07:36:09;;;;;;;2.40;1.00;;;25.00;80.80;;;;;;2537493;54;20981;-87
2021/05/09 07:38:35;;;;;;;1.80;0.80;;;25.40;79.70;;;;;;2538085;54;21025;-85
2021/05/09 07:41:09;;;;;;;2.03;0.93;;;25.70;78.50;;;;;;2301350;54;20969;-87
2021/05/09 07:43:36;;;;;;;1.73;0.80;;;26.00;76.80;;;;;;2536512;53;21005;-87
2021/05/09 07:46:05;;;;;;;3.10;1.10;;;26.30;77.50;;;;;;2561536;52;21050;-87
2021/05/09 07:48:32;;;;;;;3.10;1.40;;;26.60;76.90;;;;;;2477431;53;1836251;-87
2021/05/09 07:50:59;;;;;;;2.58;1.10;;;26.80;72.80;;;;;;2541542;53;20983;-87
2021/05/09 07:55:05;;;;;;;2.33;1.00;;;27.00;74.10;;;;;;2558296;52;20922;-87
2021/05/09 07:57:49;;;;;;;1.70;0.80;;;27.40;69.30;;;;;;2533202;53;21025;-86
2021/05/09 08:00:24;;;;;;;1.95;0.80;;;27.50;72.20;;;;;;2576602;52;20951;-86
2021/05/09 08:02:51;;;;;;;2.12;1.05;;;27.50;70.80;;;;;;2562543;52;20994;-87
2021/05/09 08:05:20;;;;;;;2.50;1.10;;;27.50;70.10;;;;;;2516510;53;21049;-85
2021/05/09 08:07:54;;;;;;;1.98;0.93;;;27.40;69.80;;;;;;2536245;52;21012;-86
2021/05/09 08:10:21;;;;;;;2.78;1.00;;;27.30;68.00;;;;;;2564585;52;20981;-86
2021/05/09 08:12:47;;;;;;;1.90;1.00;;;27.20;69.60;;;;;;2533227;52;20909;-86
2021/05/09 08:15:14;;;;;;;2.12;1.00;;;27.10;69.50;;;;;;2533048;52;21008;-86
2021/05/09 08:17:40;;;;;;;2.12;1.05;;;26.90;69.50;;;;;;2543262;52;21457;-87
2021/05/09 08:20:07;;;;;;;2.83;1.12;;;26.80;69.50;;;;;;2559734;52;20906;-86
2021/05/09 08:22:34;;;;;;;2.30;0.90;;;26.70;69.80;;;;;;2505989;53;20950;-88
2021/05/09 08:25:00;;;;;;;2.20;0.90;;;26.60;70.20;;;;;;2532848;52;20957;-85
2021/05/09 08:27:30;;;;;;;2.40;0.95;;;26.50;70.50;;;;;;2533122;52;20906;-86
2021/05/09 08:29:56;;;;;;;2.47;1.10;;;26.50;70.70;;;;;;2532290;52;20940;-85
2021/05/09 08:32:23;;;;;;;2.33;1.02;;;26.40;70.70;;;;;;2532687;52;20942;-86
2021/05/09 08:34:49;;;;;;;3.65;1.35;;;26.40;70.80;;;;;;2555602;52;20923;-86
2021/05/09 08:37:16;;;;;;;2.22;0.98;;;26.20;70.40;;;;;;2549660;52;21001;-86
2021/05/09 08:39:42;;;;;;;2.37;1.10;;;26.40;70.60;;;;;;2328966;54;20938;-86
2021/05/09 08:42:13;;;;;;;2.05;1.00;;;26.40;70.50;;;;;;2532540;53;20934;-87
2021/05/09 08:44:40;;;;;;;2.77;1.07;;;26.40;71.00;;;;;;2533038;52;20918;-86
2021/05/09 08:47:07;;;;;;;2.03;1.00;;;26.50;70.90;;;;;;2532707;52;21579;-86
2021/05/09 08:49:34;;;;;;;2.37;1.02;;;26.50;69.50;;;;;;2297772;54;21880;-87
2021/05/09 08:52:00;;;;;;;2.30;1.10;;;26.60;69.20;;;;;;2533426;54;21538;-87
2021/05/09 08:54:27;;;;;;;2.67;1.02;;;26.50;69.50;;;;;;2296875;54;21090;-87
2021/05/09 08:56:53;;;;;;;2.03;0.98;;;26.80;70.30;;;;;;2534072;52;20942;-86
2021/05/09 08:59:38;;;;;;;2.47;1.20;;;27.00;71.10;;;;;;2534240;54;20921;-86
2021/05/09 09:03:54;;;;;;;2.40;1.20;;;27.20;72.40;;;;;;2569766;52;20907;-88
2021/05/09 09:13:16;;;;;;;;;;;;;;;;;;;;;
2021/05/09 09:16:52;;;;;;;2.20;0.93;;;29.10;64.30;;;;;;2533777;52;21025;-85
2021/05/09 09:20:27;;;;;;;2.50;0.80;;;29.50;61.00;;;;;;2517163;52;20951;-85
2021/05/09 09:23:52;;;;;;;2.47;1.05;;;29.80;59.90;;;;;;2331264;52;20927;-85
2021/05/09 09:26:51;;;;;;;3.08;1.15;;;30.10;55.20;;;;;;2529229;52;20910;-84
2021/05/09 09:54:24;;;;;;;1.83;0.73;;;30.10;51.60;;;;;;2555177;52;20962;-83
2021/05/09 09:57:38;;;;;;;1.85;0.70;;;31.00;53.10;;;;;;2517923;53;21748;-85
2021/05/09 10:00:51;;;;;;;2.47;0.80;;;31.20;47.70;;;;;;2558602;52;22095;-84
2021/05/09 10:03:23;;;;;;;1.45;0.62;;;31.20;50.10;;;;;;2316589;54;20970;-85
2021/05/09 10:05:50;;;;;;;2.03;0.75;;;31.30;52.60;;;;;;2571083;52;21997;-85
2021/05/09 10:08:32;;;;;;;1.92;0.52;;;31.40;48.10;;;;;;2312919;54;21057;-85
2021/05/09 10:11:35;;;;;;;1.80;0.68;;;31.40;49.00;;;;;;2562767;52;21018;-86
2021/05/09 10:16:11;;;;;;;1.55;0.57;;;31.40;46.60;;;;;;2531203;53;20934;-86
2021/05/09 10:19:42;;;;;;;;;;;;;;;;;;;;;
2021/05/09 10:23:01;;;;;;;1.95;0.70;;;31.40;44.70;;;;;;2535274;52;20974;-86
2021/05/09 10:29:05;;;;;;;1.37;0.60;;;31.40;46.00;;;;;;2569408;52;20922;-86
2021/05/09 10:31:42;;;;;;;1.48;0.60;;;31.40;45.90;;;;;;2571461;52;21900;-86
2021/05/09 10:35:08;;;;;;;2.42;0.95;;;31.40;47.70;;;;;;2535716;52;20930;-86
2021/05/09 10:40:02;;;;;;;;;;;;;;;;;;;;;
2021/05/09 10:46:03;;;;;;;1.77;0.70;;;31.50;43.00;;;;;;2550985;52;20982;-86
2021/05/09 10:48:37;;;;;;;2.65;0.80;;;31.60;45.60;;;;;;2337196;53;21593;-86
2021/05/09 10:51:39;;;;;;;3.30;0.70;;;31.70;48.10;;;;;;2515156;53;20973;-86
2021/05/09 10:54:25;;;;;;;1.73;0.80;;;31.70;42.20;;;;;;2335965;54;21014;-86
2021/05/09 10:58:19;;;;;;;2.22;0.70;;;31.70;45.10;;;;;;2545553;53;21571;-86
2021/05/09 11:01:25;;;;;;;;;;;31.70;43.20;;;;;;2314199;54;20926;-86
2021/05/09 11:04:06;;;;;;;1.40;0.70;;;31.80;44.90;;;;;;2559018;52;20068;-87
2021/05/09 11:06:46;;;;;;;1.87;0.70;;;31.80;43.10;;;;;;2521501;53;21144;-86
2021/05/09 11:09:53;;;;;;;1.77;0.60;;;31.80;44.10;;;;;;2561535;52;20986;-87
2021/05/09 11:12:52;;;;;;;1.42;0.60;;;31.80;44.50;;;;;;2570549;52;21018;-86
2021/05/09 11:15:22;;;;;;;1.17;0.57;;;31.90;43.40;;;;;;2559908;52;21102;-86
2021/05/09 11:17:55;;;;;;;2.03;0.70;;;32.00;45.90;;;;;;2549701;52;21445;-87
2021/05/09 11:20:34;;;;;;;1.95;0.65;;;32.00;46.30;;;;;;2572844;52;20946;-86
2021/05/09 11:23:15;;;;;;;1.70;0.70;;;32.20;45.90;;;;;;2569170;52;21032;-86
2021/05/09 11:25:41;;;;;;;2.05;0.80;;;32.20;46.60;;;;;;2543095;52;20986;-87
2021/05/09 11:28:07;;;;;;;1.73;0.77;;;32.40;42.10;;;;;;2569750;52;20909;-86
2021/05/09 11:30:39;;;;;;;1.40;0.65;;;32.40;42.50;;;;;;2563802;52;20937;-86
2021/05/09 11:33:06;;;;;;;1.65;0.60;;;32.40;43.60;;;;;;2540677;53;21417;-86
2021/05/09 11:35:43;;;;;;;2.28;0.80;;;32.50;43.60;;;;;;2565275;52;21763;-86
2021/05/09 11:38:24;;;;;;;1.55;0.60;;;32.50;43.80;;;;;;2568240;52;21030;-87
2021/05/09 11:41:02;;;;;;;1.90;0.68;;;32.50;41.70;;;;;;2534425;53;20973;-86
2021/05/09 11:43:29;;;;;;;1.73;0.60;;;32.50;39.90;;;;;;2534736;52;20996;-86
2021/05/09 11:45:56;;;;;;;1.95;0.65;;;32.50;41.10;;;;;;2534615;53;21728;-86
2021/05/09 11:48:25;;;;;;;2.35;0.85;;;32.50;41.90;;;;;;2545319;52;20958;-86
2021/05/09 11:51:26;;;;;;;1.65;0.73;;;32.40;41.70;;;;;;2559978;52;21096;-87
2021/05/09 11:54:07;;;;;;;2.20;0.70;;;32.40;42.30;;;;;;2534843;52;20901;-86
2021/05/09 11:56:54;;;;;;;1.60;0.62;;;32.50;41.60;;;;;;2298101;54;21525;-86
2021/05/09 12:00:15;;;;;;;2.60;0.88;;;32.50;42.90;;;;;;2564318;52;20962;-86
2021/05/09 12:02:48;;;;;;;2.97;1.05;;;32.60;42.50;;;;;;2298284;54;21720;-85
2021/05/09 12:05:25;;;;;;;3.75;0.68;;;32.70;44.50;;;;;;2538412;52;21492;-86
2021/05/09 12:07:58;;;;;;;2.08;0.70;;;32.80;43.10;;;;;;2543437;53;20910;-86
2021/05/09 12:10:53;;;;;;;2.80;0.60;;;32.80;42.90;;;;;;2531317;52;20950;-85
2021/05/09 12:14:09;;;;;;;1.60;0.60;;;32.80;44.00;;;;;;2280839;53;22006;-86
2021/05/09 12:16:56;;;;;;;2.87;0.70;;;32.90;44.50;;;;;;2569359;52;21418;-86
2021/05/09 12:19:34;;;;;;;2.00;0.70;;;33.00;42.30;;;;;;2536485;53;20914;-86
2021/05/09 12:22:04;;;;;;;2.83;0.73;;;33.10;42.50;;;;;;2548287;52;20954;-86
2021/05/09 12:25:45;;;;;;;2.37;0.80;;;33.20;45.10;;;;;;2558859;52;20941;-85
2021/05/09 12:29:11;;;;;;;1.30;0.60;;;33.20;40.80;;;;;;2310846;53;21191;-85
2021/05/09 12:33:46;;;;;;;4.28;0.80;;;33.30;40.50;;;;;;2573593;52;20975;-85
2021/05/09 12:38:33;;;;;;;2.08;0.70;;;33.40;42.00;;;;;;2527861;53;21818;-86
2021/05/09 12:42:16;;;;;;;1.40;0.60;;;33.40;41.60;;;;;;2538528;52;20897;-86
2021/05/09 12:56:31;;;;;;;1.37;0.55;;;33.20;39.00;;;;;;2546744;52;21453;-84
2021/05/09 13:03:17;;;;;;;;;;;;;;;;;;;;;
2021/05/09 13:06:24;;;;;;;0.82;0.40;;;33.00;40.70;;;;;;2531979;53;20906;-86
2021/05/09 13:10:21;;;;;;;3.33;0.70;;;32.90;44.20;;;;;;2340008;53;20971;-86
2021/05/09 13:13:31;;;;;;;1.42;0.60;;;32.90;41.20;;;;;;2304162;54;21018;-86
2021/05/09 13:16:22;;;;;;;2.33;0.77;;;32.90;41.10;;;;;;2548850;52;21524;-86
2021/05/09 13:25:34;;;;;;;;;;;;;;;;;;;;;
2021/05/09 13:42:01;;;;;;;2.42;0.70;;;33.00;41.50;;;;;;2564979;52;21954;-86
2021/05/09 13:44:39;;;;;;;2.40;0.98;;;32.90;39.80;;;;;;2518862;53;20955;-86
2021/05/09 13:47:24;;;;;;;1.48;0.50;;;32.90;40.90;;;;;;2563799;52;21858;-86
2021/05/09 13:50:39;;;;;;;2.12;0.80;;;32.90;42.30;;;;;;2539013;53;21627;-86
2021/05/09 13:59:47;;;;;;;1.20;0.60;;;32.90;42.00;;;;;;2554186;52;20962;-86
2021/05/09 14:02:20;;;;;;;1.15;0.52;;;32.90;42.60;;;;;;2558245;52;20949;-84
2021/05/09 14:04:47;;;;;;;1.48;0.60;;;32.90;42.00;;;;;;2538241;54;20922;-83
2021/05/09 14:12:25;;;;;;;1.67;0.60;;;32.90;39.90;;;;;;2560902;52;21458;-83
2021/05/09 14:15:50;;;;;;;1.67;0.65;;;32.90;42.50;;;;;;2292406;54;21010;-85
2021/05/09 14:19:32;;;;;;;2.33;0.65;;;32.80;40.40;;;;;;2330511;53;20967;-82
2021/05/09 14:23:36;;;;;;;2.10;0.73;;;32.90;40.60;;;;;;2538253;52;21286;-83
2021/05/09 14:27:41;;;;;;;1.62;0.62;;;33.00;40.60;;;;;;2303233;54;21604;-84
2021/05/09 14:30:33;;;;;;;1.73;0.50;;;33.10;41.90;;;;;;2538066;53;20905;-82
2021/05/09 14:34:05;;;;;;;0.80;0.37;;;33.20;43.90;;;;;;2304106;54;20956;-83
2021/05/09 14:37:02;;;;;;;0.70;0.30;;;33.30;42.00;;;;;;2554524;52;21030;-82
2021/05/09 14:40:21;;;;;;;2.25;0.60;;;33.40;44.50;;;;;;2530242;53;21002;-82
2021/05/09 14:43:29;;;;;;;0.98;0.50;;;33.40;45.20;;;;;;2299545;55;20999;-83
2021/05/09 14:47:37;;;;;;;1.65;0.50;;;33.40;44.80;;;;;;2330880;53;21018;-83
2021/05/09 14:50:24;;;;;;;2.55;0.50;;;33.30;45.90;;;;;;2316043;54;21021;-83
2021/05/09 14:53:45;;;;;;;0.93;0.43;;;33.30;45.80;;;;;;2556822;52;20976;-84
2021/05/09 15:00:13;;;;;;;;;;;;;;;;;;;;;
2021/05/09 15:03:58;;;;;;;1.33;0.57;;;33.00;44.80;;;;;;2539921;53;20909;-83
2021/05/09 15:06:42;;;;;;;2.20;0.50;;;32.90;42.90;;;;;;2301228;53;20961;-84
2021/05/09 15:10:29;;;;;;;;;;;;;;;;;;;;;
2021/05/09 15:17:54;;;;;;;;;;;;;;;;;;;;;
2021/05/09 15:23:27;;;;;;;1.70;0.47;;;32.70;45.60;;;;;;2534817;52;20935;-84
2021/05/09 15:28:24;;;;;;;1.15;0.45;;;32.70;46.50;;;;;;2577355;52;20987;-83
2021/05/09 15:33:05;;;;;;;1.15;0.50;;;32.80;43.50;;;;;;2564072;52;20934;-86
2021/05/09 15:36:04;;;;;;;1.00;0.40;;;32.80;42.10;;;;;;2308237;53;20945;-84
2021/05/09 15:39:14;;;;;;;0.95;0.30;;;32.80;45.30;;;;;;2282952;53;21022;-83
2021/05/09 15:42:18;;;;;;;0.77;0.30;;;32.80;43.50;;;;;;2574523;52;21063;-83
2021/05/09 15:45:40;;;;;;;0.90;0.40;;;32.80;46.10;;;;;;2576245;52;21014;-84
2021/05/09 15:55:06;;;;;;;1.05;0.40;;;32.90;43.90;;;;;;2534084;53;20927;-83
2021/05/09 16:00:17;;;;;;;;;;;;;;;;;;;;;
2021/05/09 16:05:01;;;;;;;1.73;0.70;;;32.90;44.40;;;;;;2436411;56;21868;-85
2021/05/09 16:07:48;;;;;;;0.93;0.32;;;32.80;43.50;;;;;;2210066;57;21012;-85
2021/05/09 16:10:20;;;;;;;1.40;0.60;;;32.70;45.40;;;;;;2436748;56;21034;-86
2021/05/09 16:12:47;;;;;;;0.50;0.30;;;32.60;45.50;;;;;;2225612;57;21496;-84
2021/05/09 16:15:16;;;;;;;1.20;0.50;;;32.50;45.20;;;;;;2442640;55;20980;-84
2021/05/09 16:17:54;;;;;;;1.33;0.50;;;32.50;45.00;;;;;;2444540;55;21905;-83
2021/05/09 16:20:23;;;;;;;1.00;0.40;;;32.40;43.50;;;;;;2428855;56;20960;-83
2021/05/09 16:22:55;;;;;;;4.12;0.80;;;32.40;44.90;;;;;;2209122;57;21260;-83
2021/05/09 16:25:50;;;;;;;2.30;0.62;;;32.40;43.70;;;;;;2427472;56;20935;-83
2021/05/09 16:28:45;;;;;;;;;;;;;;;;;;;;;
2021/05/09 16:31:25;;;;;;;1.50;0.62;;;32.40;43.00;;;;;;2431169;56;20980;-84
2021/05/09 16:34:10;;;;;;;0.93;0.47;;;32.40;46.00;;;;;;2449916;56;21273;-83
2021/05/09 16:36:44;;;;;;;2.37;0.85;;;32.50;43.50;;;;;;2209734;57;21265;-84
2021/05/09 16:39:21;;;;;;;4.32;2.00;;;32.50;45.80;;;;;;2524020;52;21320;-84
2021/05/09 16:42:03;;;;;;;4.07;1.62;;;32.60;46.20;;;;;;2553858;52;20975;-85
2021/05/09 16:45:00;;;;;;;2.45;1.20;;;32.60;46.50;;;;;;2549248;52;20929;-84
2021/05/09 16:47:37;;;;;;;;;;;;;;;;;;;;;
2021/05/09 16:50:12;;;;;;;2.58;1.05;;;32.60;45.90;;;;;;2299833;54;21041;-84
2021/05/09 16:53:27;;;;;;;2.33;0.80;;;32.60;45.90;;;;;;2299616;54;21284;-83
2021/05/09 16:56:44;;;;;;;1.27;0.45;;;32.60;42.80;;;;;;2335606;53;21010;-83
2021/05/09 16:59:21;;;;;;;0.82;0.40;;;32.60;43.20;;;;;;2300331;54;21033;-84
2021/05/09 17:02:07;;;;;;;1.35;0.60;;;32.50;45.60;;;;;;2536973;54;20913;-83
2021/05/09 17:08:09;;;;;;;1.25;0.50;;;32.40;42.20;;;;;;2281853;53;20962;-84
2021/05/09 17:10:56;;;;;;;1.50;0.73;;;32.30;42.40;;;;;;2560987;52;20994;-84
2021/05/09 17:17:11;;;;;;;1.15;0.52;;;32.30;40.60;;;;;;2543139;53;21297;-84
2021/05/09 17:56:48;;;;;;;3.50;0.47;;;31.20;46.80;;;;;;2397537;53;23200;-68
2021/05/09 17:59:14;;;;;;;1.05;0.50;;;30.90;48.80;;;;;;2573417;53;20957;-69
2021/05/09 18:01:41;;;;;;;1.17;0.52;;;30.60;48.30;;;;;;2351936;54;21486;-67
2021/05/09 18:04:08;;;;;;;1.00;0.40;;;30.50;48.00;;;;;;2340087;53;20941;-67
2021/05/09 18:06:35;;;;;;;1.08;0.50;;;30.30;47.70;;;;;;2340117;53;20962;-66
2021/05/09 18:09:12;;;;;;;0.98;0.35;;;30.10;47.60;;;;;;2352020;53;21573;-67
2021/05/09 18:11:40;;;;;;;1.12;0.40;;;29.80;47.40;;;;;;2336720;53;21784;-67
2021/05/09 18:14:06;;;;;;;1.40;0.50;;;29.70;47.20;;;;;;2351235;53;20990;-66
2021/05/09 18:16:51;;;;;;;1.10;0.30;;;29.50;47.20;;;;;;2355174;54;21037;-67
2021/05/09 18:24:46;;;;;;;2.53;0.60;;;28.90;47.00;;;;;;2377467;53;20902;-67
2021/05/09 18:27:13;;;;;;;1.48;0.50;;;28.70;47.70;;;;;;2594512;53;20915;-68
2021/05/09 18:29:40;;;;;;;1.80;0.75;;;28.50;47.20;;;;;;2521857;53;21440;-67
2021/05/09 18:32:06;;;;;;;2.03;0.73;;;28.30;47.20;;;;;;2357485;54;21711;-65
2021/05/09 18:34:32;;;;;;;1.87;0.60;;;28.10;47.20;;;;;;2349023;53;20931;-66
2021/05/09 18:36:59;;;;;;;1.05;0.47;;;27.90;47.20;;;;;;2351121;54;20906;-68
2021/05/09 18:39:28;;;;;;;2.12;0.50;;;27.70;47.20;;;;;;2266098;55;21035;-66
2021/05/09 18:41:55;;;;;;;3.70;0.55;;;27.60;47.20;;;;;;2302213;54;21021;-67
2021/05/09 18:44:21;;;;;;;0.93;0.40;;;27.40;47.20;;;;;;2335243;54;20949;-68
2021/05/09 18:46:59;;;;;;;1.20;0.40;;;27.30;47.40;;;;;;2329694;54;20925;-68
2021/05/09 18:49:26;;;;;;;1.08;0.40;;;27.20;46.20;;;;;;2556052;54;21001;-66
2021/05/09 18:51:53;;;;;;;1.12;0.40;;;27.00;47.80;;;;;;2336898;54;20985;-69
2021/05/09 18:54:19;;;;;;;4.28;0.47;;;27.00;48.00;;;;;;2348727;54;21823;-69
2021/05/09 18:56:45;;;;;;;2.35;0.50;;;26.80;48.10;;;;;;2339251;54;21002;-67
2021/05/09 18:59:14;;;;;;;1.42;0.40;;;26.70;48.20;;;;;;2340453;54;20917;-66
2021/05/09 19:01:42;;;;;;;3.08;0.65;;;26.60;48.30;;;;;;2358316;54;21433;-68
2021/05/09 19:04:09;;;;;;;1.15;0.30;;;26.50;48.70;;;;;;2335127;54;20987;-67
2021/05/09 19:06:37;;;;;;;8.55;1.27;;;26.40;49.30;;;;;;2357498;54;20972;-71
2021/05/09 19:09:07;;;;;;;1.30;0.40;;;26.30;49.00;;;;;;2354245;53;21554;-69
2021/05/09 19:11:33;;;;;;;1.10;0.50;;;26.20;48.80;;;;;;2356032;54;20917;-70
2021/05/09 19:14:00;;;;;;;1.90;0.43;;;26.00;48.90;;;;;;2356910;54;20949;-70
2021/05/09 19:16:28;;;;;;;1.45;0.40;;;25.80;49.10;;;;;;2355089;54;20993;-69
2021/05/09 19:18:54;;;;;;;1.83;0.45;;;25.60;48.90;;;;;;2332833;54;20892;-70
2021/05/09 19:21:24;;;;;;;1.60;0.35;;;25.50;49.20;;;;;;2356697;53;21001;-69
2021/05/09 19:23:51;;;;;;;1.65;0.50;;;25.40;49.20;;;;;;2336238;54;20949;-70
2021/05/09 19:26:19;;;;;;;2.03;0.68;;;25.20;49.50;;;;;;2353735;54;22033;-68
2021/05/09 19:28:50;;;;;;;0.93;0.50;;;25.10;49.70;;;;;;2337054;54;20957;-67
2021/05/09 19:31:18;;;;;;;3.42;0.85;;;25.00;49.70;;;;;;2353738;54;20972;-68
2021/05/09 19:33:45;;;;;;;1.30;0.47;;;24.90;49.80;;;;;;2587042;53;20929;-68
2021/05/09 19:36:11;;;;;;;1.00;0.40;;;24.80;49.80;;;;;;2332756;54;21025;-69
2021/05/09 19:38:40;;;;;;;2.28;0.32;;;24.70;49.80;;;;;;2354322;54;21003;-68
2021/05/09 19:41:07;;;;;;;1.55;0.37;;;24.60;49.80;;;;;;2333698;54;21413;-70
2021/05/09 19:43:33;;;;;;;0.68;0.40;;;24.50;49.80;;;;;;2356697;54;20929;-70
2021/05/09 19:46:02;;;;;;;0.95;0.40;;;24.40;50.00;;;;;;2307231;55;21008;-71
2021/05/09 19:48:31;;;;;;;1.17;0.50;;;24.40;50.10;;;;;;2307076;54;21042;-70
2021/05/09 19:50:57;;;;;;;1.08;0.50;;;24.30;50.20;;;;;;2329261;53;22238;-71
2021/05/09 19:53:24;;;;;;;0.70;0.37;;;24.20;50.10;;;;;;2339522;54;21031;-71
2021/05/09 19:55:54;;;;;;;1.08;0.40;;;24.10;50.20;;;;;;2356673;54;20917;-69
2021/05/09 19:58:22;;;;;;;1.02;0.37;;;24.10;50.20;;;;;;2372366;53;21088;-71
2021/05/09 20:00:48;;;;;;;1.17;0.57;;;24.00;50.30;;;;;;2578059;53;20941;-71
2021/05/09 20:03:15;;;;;;;1.10;0.45;;;23.90;50.40;;;;;;2357087;54;20917;-70
2021/05/09 20:05:41;;;;;;;0.80;0.45;;;23.90;50.50;;;;;;2572547;53;21731;-72
2021/05/09 20:08:07;;;;;;;2.28;0.60;;;23.80;50.60;;;;;;2338106;54;20952;-72
2021/05/09 20:10:34;;;;;;;0.60;0.30;;;23.70;50.60;;;;;;2344200;54;20932;-71
2021/05/09 20:13:00;;;;;;;1.17;0.40;;;23.70;50.70;;;;;;2355195;54;20988;-74
2021/05/09 20:15:26;;;;;;;0.68;0.30;;;23.60;50.70;;;;;;2580328;53;21386;-71
2021/05/09 20:17:52;;;;;;;1.30;0.50;;;23.60;50.90;;;;;;2574617;53;20961;-72
2021/05/09 20:20:19;;;;;;;0.95;0.52;;;23.50;50.90;;;;;;2340448;54;20980;-71
2021/05/09 20:22:45;;;;;;;1.08;0.47;;;23.40;51.00;;;;;;2357078;54;20936;-72
2021/05/09 20:25:11;;;;;;;1.08;0.50;;;23.40;51.00;;;;;;2359568;54;20957;-72
2021/05/09 20:27:38;;;;;;;1.30;0.52;;;23.30;51.10;;;;;;2330419;54;21421;-71
2021/05/09 20:30:05;;;;;;;1.85;0.60;;;23.30;51.40;;;;;;2356635;54;21044;-72
2021/05/09 20:32:32;;;;;;;0.85;0.40;;;23.20;51.20;;;;;;2333987;53;21866;-72
2021/05/09 20:35:00;;;;;;;1.40;0.50;;;23.10;51.30;;;;;;2343479;53;21399;-71
2021/05/09 20:37:27;;;;;;;1.00;0.40;;;23.10;51.30;;;;;;2346238;53;21237;-71
2021/05/09 20:39:54;;;;;;;1.48;0.43;;;23.00;51.40;;;;;;2313253;54;21044;-72
2021/05/09 20:42:20;;;;;;;0.82;0.45;;;22.90;51.50;;;;;;2353340;53;20965;-73
2021/05/09 20:44:46;;;;;;;1.33;0.40;;;22.90;51.70;;;;;;2302970;55;21014;-72
2021/05/09 20:47:12;;;;;;;1.87;0.68;;;22.80;51.80;;;;;;2315270;54;21371;-72
2021/05/09 20:49:39;;;;;;;1.30;0.50;;;22.80;51.80;;;;;;2329193;54;20959;-71
2021/05/09 20:52:06;;;;;;;1.37;0.50;;;22.70;51.90;;;;;;2351671;54;20922;-72
2021/05/09 20:54:35;;;;;;;1.35;0.52;;;22.60;51.90;;;;;;2324942;53;21037;-72
2021/05/09 20:57:01;;;;;;;1.05;0.50;;;22.50;52.00;;;;;;2337926;53;21504;-72
2021/05/09 20:59:30;;;;;;;1.15;0.50;;;22.40;52.00;;;;;;2357271;53;20973;-72
2021/05/09 21:01:56;;;;;;;1.80;0.60;;;22.40;52.10;;;;;;2366333;54;20992;-72
2021/05/09 21:04:23;;;;;;;0.90;0.45;;;22.30;52.10;;;;;;2366474;54;20936;-72
2021/05/09 21:06:50;;;;;;;1.20;0.60;;;22.20;52.20;;;;;;2366916;54;20972;-72
2021/05/09 21:09:16;;;;;;;2.50;0.50;;;22.20;52.30;;;;;;2542823;52;21497;-70
2021/05/09 21:11:42;;;;;;;1.62;0.45;;;22.10;52.40;;;;;;2346101;53;21715;-71
2021/05/09 21:14:11;;;;;;;2.67;0.62;;;22.00;52.50;;;;;;2366168;54;21017;-72
2021/05/09 21:16:41;;;;;;;1.70;0.57;;;22.00;52.70;;;;;;2366116;54;20933;-70
2021/05/09 21:19:08;;;;;;;1.55;0.60;;;21.90;52.70;;;;;;2439690;52;21334;-73
2021/05/09 21:21:35;;;;;;;1.45;0.60;;;21.90;52.80;;;;;;2365323;54;20949;-72
2021/05/09 21:24:01;;;;;;;1.70;0.55;;;21.90;52.80;;;;;;2365007;52;21564;-72
2021/05/09 21:26:28;;;;;;;1.27;0.50;;;21.80;52.90;;;;;;2366186;54;20941;-73
2021/05/09 21:28:54;;;;;;;1.55;0.50;;;21.70;53.00;;;;;;2366761;54;21001;-71
2021/05/09 21:31:20;;;;;;;1.42;0.57;;;21.60;53.00;;;;;;2367991;56;21064;-71
2021/05/09 21:33:47;;;;;;;1.98;0.70;;;21.60;53.10;;;;;;2505053;52;22033;-72
2021/05/09 21:36:13;;;;;;;3.87;1.30;;;21.60;53.30;;;;;;2604944;52;21460;-72
2021/05/09 21:38:40;;;;;;;7.60;3.22;;;21.50;53.30;;;;;;2366269;54;20928;-70
2021/05/09 21:41:06;;;;;;;9.50;3.70;;;21.50;53.50;;;;;;2583164;52;21081;-70
2021/05/09 21:43:32;;;;;;;7.12;2.83;;;21.50;53.70;;;;;;2597455;53;21010;-73
2021/05/09 21:45:58;;;;;;;5.00;2.10;;;21.40;53.80;;;;;;2612150;52;20929;-70
2021/05/09 21:48:27;;;;;;;4.12;1.58;;;21.40;53.90;;;;;;2340471;53;21001;-70
2021/05/09 21:50:56;;;;;;;3.33;1.15;;;21.40;54.10;;;;;;2342853;53;20933;-72
2021/05/09 21:53:23;;;;;;;1.65;0.80;;;21.40;54.10;;;;;;2365921;54;21452;-72
2021/05/09 21:55:52;;;;;;;1.62;0.70;;;21.30;54.10;;;;;;2510420;53;21028;-72
2021/05/09 21:58:19;;;;;;;1.45;0.60;;;21.30;54.20;;;;;;2360245;53;20941;-71
2021/05/09 22:00:46;;;;;;;1.23;0.50;;;21.30;54.30;;;;;;2349162;53;20952;-72
2021/05/09 22:03:12;;;;;;;2.20;0.80;;;21.30;54.40;;;;;;2337743;53;20941;-72
2021/05/09 22:05:39;;;;;;;2.10;0.80;;;21.30;54.60;;;;;;2530605;52;20942;-73
2021/05/09 22:08:10;;;;;;;1.45;0.57;;;21.30;54.70;;;;;;2617528;52;20920;-71
2021/05/09 22:10:37;;;;;;;1.02;0.52;;;21.30;54.70;;;;;;2604592;52;20954;-73
2021/05/09 22:13:04;;;;;;;2.03;0.70;;;21.30;54.70;;;;;;2365013;53;20906;-73
2021/05/09 22:15:31;;;;;;;2.90;0.80;;;21.30;54.80;;;;;;2365665;53;20926;-72
2021/05/09 22:17:57;;;;;;;2.15;0.80;;;21.20;54.90;;;;;;2327094;53;20975;-71
2021/05/09 22:20:23;;;;;;;2.05;0.62;;;21.20;55.00;;;;;;2584145;52;21047;-73
2021/05/09 22:22:52;;;;;;;1.45;0.62;;;21.20;55.10;;;;;;2338265;53;21023;-70
2021/05/09 22:25:19;;;;;;;2.50;0.70;;;21.20;55.30;;;;;;2338089;53;20958;-73
2021/05/09 22:27:45;;;;;;;1.42;0.70;;;21.10;55.30;;;;;;2583038;53;20975;-72
2021/05/09 22:30:12;;;;;;;1.58;0.80;;;21.10;55.40;;;;;;2583464;53;20927;-70
2021/05/09 22:32:39;;;;;;;2.45;0.85;;;21.10;55.50;;;;;;2338621;53;21822;-72
2021/05/09 22:35:07;;;;;;;1.77;0.90;;;21.00;55.50;;;;;;2445706;53;20997;-72
2021/05/09 22:37:45;;;;;;;1.77;0.80;;;21.00;55.60;;;;;;2535147;53;20952;-72
2021/05/09 22:40:13;;;;;;;2.90;0.90;;;21.00;55.50;;;;;;2347754;53;21424;-72
2021/05/09 22:42:39;;;;;;;2.20;0.90;;;21.00;55.80;;;;;;2352408;53;21008;-71
2021/05/09 22:45:06;;;;;;;2.62;0.98;;;21.00;56.00;;;;;;2346808;53;20913;-70
2021/05/09 22:47:33;;;;;;;2.40;1.00;;;20.90;56.10;;;;;;2584135;53;20976;-73
2021/05/09 22:49:59;;;;;;;1.87;0.73;;;20.90;56.20;;;;;;2474022;53;20976;-71
2021/05/09 22:52:26;;;;;;;1.70;0.70;;;20.90;56.30;;;;;;2338449;53;20976;-71
2021/05/09 22:54:53;;;;;;;2.37;0.65;;;20.90;56.40;;;;;;2355474;53;21522;-72
2021/05/09 22:57:19;;;;;;;2.08;0.80;;;20.90;56.40;;;;;;2349948;53;20923;-70
2021/05/09 22:59:45;;;;;;;1.90;0.70;;;20.90;56.50;;;;;;2585929;52;20946;-73
2021/05/09 23:02:11;;;;;;;2.45;1.00;;;20.90;56.60;;;;;;2340161;53;20975;-73
2021/05/09 23:04:40;;;;;;;2.53;0.77;;;20.90;56.80;;;;;;2549939;53;20914;-72
2021/05/09 23:07:06;;;;;;;1.83;0.70;;;20.90;56.90;;;;;;2312256;54;20942;-72
2021/05/09 23:09:33;;;;;;;1.98;0.75;;;21.00;57.00;;;;;;2361546;53;20947;-73
2021/05/09 23:12:00;;;;;;;2.90;1.02;;;21.00;57.00;;;;;;2358869;53;21476;-71
2021/05/09 23:14:27;;;;;;;2.17;0.80;;;21.00;57.00;;;;;;2335870;53;20953;-73
2021/05/09 23:16:58;;;;;;;2.28;0.80;;;21.00;57.00;;;;;;2352900;53;21815;-72
2021/05/09 23:19:35;;;;;;;1.20;0.52;;;21.00;57.60;;;;;;2593580;52;20944;-71
2021/05/09 23:22:02;;;;;;;1.83;0.70;;;21.00;57.00;;;;;;2341720;53;21033;-73
2021/05/09 23:24:30;;;;;;;2.00;0.90;;;21.00;57.10;;;;;;2348159;53;21001;-72
2021/05/09 23:26:57;;;;;;;1.95;0.77;;;21.00;57.10;;;;;;2586151;52;20976;-72
2021/05/09 23:29:23;;;;;;;2.53;0.82;;;21.00;57.20;;;;;;2350809;53;20949;-73
2021/05/09 23:31:50;;;;;;;2.17;0.85;;;21.00;57.20;;;;;;2594435;52;20929;-72
2021/05/09 23:34:16;;;;;;;1.15;0.68;;;21.00;57.10;;;;;;2423276;52;20925;-74
2021/05/09 23:36:44;;;;;;;1.37;0.60;;;21.00;57.10;;;;;;2432510;53;21091;-71
2021/05/09 23:39:10;;;;;;;2.47;0.95;;;21.00;57.10;;;;;;2357910;53;20949;-71
2021/05/09 23:41:49;;;;;;;4.05;1.50;;;21.00;57.10;;;;;;2354315;53;21601;-71
2021/05/09 23:44:15;;;;;;;3.83;1.83;;;21.00;57.10;;;;;;2365819;54;20933;-71
2021/05/09 23:46:44;;;;;;;3.58;1.58;;;21.00;57.80;;;;;;2366415;54;20897;-71
2021/05/09 23:49:10;;;;;;;3.97;1.35;;;21.00;57.20;;;;;;2324358;54;20993;-71
2021/05/09 23:51:37;;;;;;;2.90;1.20;;;21.00;57.30;;;;;;2616648;52;20905;-72
2021/05/09 23:54:03;;;;;;;2.80;1.23;;;21.00;57.30;;;;;;2366297;54;20925;-71
2021/05/09 23:56:29;;;;;;;3.65;1.33;;;20.90;57.20;;;;;;2483068;52;20984;-74
2021/05/09 23:58:56;;;;;;;2.62;1.10;;;21.00;57.20;;;;;;2617799;52;20991;-73
